createdAt,value
2019-02-25T00:01:14.389Z,9.93
2019-02-25T00:03:41.986Z,10.73
2019-02-25T00:06:10.525Z,10.67
2019-02-25T00:08:38.182Z,11.43
2019-02-25T00:11:05.797Z,11.20
2019-02-25T00:13:33.683Z,11.20
2019-02-25T00:16:01.963Z,10.67
2019-02-25T00:18:29.955Z,11.63
2019-02-25T00:20:57.898Z,11.07
2019-02-25T00:23:26.169Z,12.57
2019-02-25T00:25:54.148Z,12.23
2019-02-25T00:28:22.122Z,11.50
2019-02-25T00:30:49.654Z,11.67
2019-02-25T00:33:19.327Z,11.53
2019-02-25T00:35:46.963Z,11.20
2019-02-25T00:38:14.568Z,11.70
2019-02-25T00:40:43.290Z,12.20
2019-02-25T00:43:10.890Z,12.27
2019-02-25T00:45:38.535Z,11.67
2019-02-25T00:48:06.158Z,11.57
2019-02-25T00:50:34.130Z,12.97
2019-02-25T00:53:02.119Z,13.33
2019-02-25T00:55:30.110Z,13.03
2019-02-25T00:57:57.729Z,12.57
2019-02-25T01:00:25.357Z,14.37
2019-02-25T01:02:53.500Z,13.70
2019-02-25T01:05:21.333Z,13.47
2019-02-25T01:07:49.027Z,14.10
2019-02-25T01:10:18.085Z,14.30
2019-02-25T01:12:45.919Z,14.13
2019-02-25T01:15:14.036Z,13.90
2019-02-25T01:17:41.688Z,14.00
2019-02-25T01:20:09.657Z,14.03
2019-02-25T01:22:37.276Z,15.87
2019-02-25T01:25:06.312Z,15.43
2019-02-25T01:27:33.832Z,15.83
2019-02-25T01:30:01.433Z,16.50
2019-02-25T01:32:29.059Z,15.73
2019-02-25T01:34:56.719Z,14.80
2019-02-25T01:37:24.341Z,15.37
2019-02-25T01:39:51.984Z,15.40
2019-02-25T01:42:20.362Z,14.13
2019-02-25T01:44:47.986Z,14.33
2019-02-25T01:47:15.602Z,13.83
2019-02-25T01:49:43.139Z,13.10
2019-02-25T01:52:10.786Z,13.37
2019-02-25T01:54:39.760Z,13.50
2019-02-25T01:57:07.310Z,12.00
2019-02-25T01:59:34.929Z,11.43
2019-02-25T02:02:02.640Z,11.73
2019-02-25T02:04:31.032Z,12.60
2019-02-25T02:06:58.624Z,12.77
2019-02-25T02:09:26.213Z,12.47
2019-02-25T02:11:53.701Z,12.60
2019-02-25T02:14:21.237Z,12.67
2019-02-25T02:16:49.232Z,12.40
2019-02-25T02:19:16.832Z,12.60
2019-02-25T02:21:44.435Z,12.70
2019-02-25T02:24:12.317Z,12.50
2019-02-25T02:26:39.918Z,12.23
2019-02-25T02:29:08.146Z,13.03
2019-02-25T02:31:36.114Z,12.40
2019-02-25T02:34:05.358Z,13.90
2019-02-25T02:36:33.005Z,13.10
2019-02-25T02:39:00.902Z,13.83
2019-02-25T02:41:28.503Z,13.27
2019-02-25T02:43:56.158Z,13.63
2019-02-25T02:46:27.740Z,15.10
2019-02-25T02:48:57.521Z,14.67
2019-02-25T02:51:25.129Z,14.23
2019-02-25T02:53:53.030Z,14.33
2019-02-25T02:56:20.913Z,14.20
2019-02-25T02:58:48.927Z,14.17
2019-02-25T03:01:16.921Z,14.10
2019-02-25T03:03:44.822Z,15.03
2019-02-25T03:06:12.546Z,14.37
2019-02-25T03:08:40.552Z,14.27
2019-02-25T03:11:08.170Z,14.93
2019-02-25T03:13:35.794Z,14.47
2019-02-25T03:16:03.612Z,13.67
2019-02-25T03:18:31.452Z,12.67
2019-02-25T03:20:59.074Z,13.53
2019-02-25T03:23:26.692Z,13.27
2019-02-25T03:25:54.262Z,14.60
2019-02-25T03:28:22.077Z,13.33
2019-02-25T03:30:50.116Z,12.60
2019-02-25T03:33:18.043Z,13.57
2019-02-25T03:35:45.682Z,12.77
2019-02-25T03:38:13.245Z,12.37
2019-02-25T03:40:40.843Z,12.60
2019-02-25T03:43:08.734Z,13.10
2019-02-25T03:45:36.365Z,13.77
2019-02-25T03:48:03.988Z,13.40
2019-02-25T03:50:31.619Z,13.17
2019-02-25T03:52:59.695Z,14.17
2019-02-25T03:55:27.644Z,15.37
2019-02-25T03:57:55.232Z,14.33
2019-02-25T04:00:23.178Z,14.97
2019-02-25T04:02:51.443Z,13.63
2019-02-25T04:05:19.067Z,12.40
2019-02-25T04:07:46.776Z,11.93
2019-02-25T04:10:14.450Z,11.60
2019-02-25T04:12:43.525Z,12.63
2019-02-25T04:15:15.685Z,13.13
2019-02-25T04:17:43.196Z,12.33
2019-02-25T04:20:11.639Z,11.53
2019-02-25T04:22:39.246Z,12.67
2019-02-25T04:25:06.996Z,12.23
2019-02-25T04:27:34.687Z,12.53
2019-02-25T04:30:04.034Z,13.57
2019-02-25T04:32:34.712Z,13.70
2019-02-25T04:35:02.624Z,13.13
2019-02-25T04:37:30.545Z,13.37
2019-02-25T04:39:58.175Z,14.30
2019-02-25T04:42:25.768Z,12.23
2019-02-25T04:44:53.421Z,12.90
2019-02-25T04:47:21.000Z,13.13
2019-02-25T04:49:48.657Z,12.80
2019-02-25T04:52:16.545Z,13.10
2019-02-25T04:54:44.232Z,13.50
2019-02-25T04:57:11.840Z,13.33
2019-02-25T04:59:39.495Z,11.80
2019-02-25T05:02:07.124Z,11.83
2019-02-25T05:04:34.791Z,12.87
2019-02-25T05:07:03.023Z,12.30
2019-02-25T05:09:30.640Z,13.57
2019-02-25T05:11:58.261Z,12.30
2019-02-25T05:14:26.215Z,10.47
2019-02-25T05:16:53.841Z,11.00
2019-02-25T05:19:21.470Z,10.90
2019-02-25T05:21:49.470Z,12.13
2019-02-25T05:24:17.155Z,11.57
2019-02-25T05:26:44.689Z,11.37
2019-02-25T05:29:12.340Z,12.10
2019-02-25T05:31:40.258Z,10.33
2019-02-25T05:34:08.056Z,10.37
2019-02-25T05:36:35.710Z,11.37
2019-02-25T05:39:05.007Z,11.53
2019-02-25T05:41:32.610Z,10.37
2019-02-25T05:44:01.326Z,11.37
2019-02-25T05:46:29.087Z,11.23
2019-02-25T05:48:56.776Z,12.30
2019-02-25T05:51:25.597Z,13.43
2019-02-25T05:53:53.527Z,13.33
2019-02-25T05:56:21.158Z,13.20
2019-02-25T05:58:49.744Z,12.93
2019-02-25T06:01:18.476Z,12.13
2019-02-25T06:03:46.087Z,13.13
2019-02-25T06:06:14.055Z,12.97
2019-02-25T06:08:42.908Z,13.23
2019-02-25T06:11:10.482Z,13.07
2019-02-25T06:13:38.400Z,12.67
2019-02-25T06:16:06.352Z,13.57
2019-02-25T06:18:34.279Z,12.80
2019-02-25T06:21:01.868Z,12.87
2019-02-25T06:23:29.732Z,13.60
2019-02-25T06:25:57.369Z,12.63
2019-02-25T06:28:25.004Z,12.73
2019-02-25T06:30:52.933Z,11.83
2019-02-25T06:33:21.347Z,13.60
2019-02-25T06:35:48.946Z,13.53
2019-02-25T06:38:16.590Z,13.23
2019-02-25T06:40:44.424Z,11.40
2019-02-25T06:43:12.365Z,12.00
2019-02-25T06:45:39.870Z,12.57
2019-02-25T06:48:07.520Z,10.80
2019-02-25T06:50:35.606Z,10.97
2019-02-25T06:53:03.642Z,11.20
2019-02-25T06:55:31.547Z,11.40
2019-02-25T06:57:59.655Z,11.10
2019-02-25T07:00:27.260Z,11.37
2019-02-25T07:02:54.888Z,11.37
2019-02-25T07:05:42.030Z,10.27
2019-02-25T07:08:34.869Z,9.90
2019-02-25T07:11:14.185Z,10.50
2019-02-25T07:14:02.946Z,10.47
2019-02-25T07:16:48.639Z,10.30
2019-02-25T07:19:48.133Z,11.13
2019-02-25T07:22:35.271Z,9.53
2019-02-25T07:25:08.636Z,9.97
2019-02-25T07:28:13.854Z,10.73
2019-02-25T07:31:01.730Z,10.20
2019-02-25T07:33:58.096Z,10.63
2019-02-25T07:36:43.816Z,15.50
2019-02-25T07:39:35.414Z,13.10
2019-02-25T07:42:14.907Z,11.03
2019-02-25T07:45:05.267Z,10.17
2019-02-25T07:47:43.722Z,11.00
2019-02-25T07:50:33.566Z,10.90
2019-02-25T07:53:26.960Z,11.17
2019-02-25T07:56:29.353Z,10.43
2019-02-25T07:59:20.246Z,10.17
2019-02-25T08:02:16.539Z,10.07
2019-02-25T08:04:57.448Z,10.57
2019-02-25T08:07:49.465Z,10.37
2019-02-25T08:10:32.705Z,9.53
2019-02-25T08:13:18.676Z,10.30
2019-02-25T08:16:04.886Z,7.57
2019-02-25T08:18:51.177Z,10.63
2019-02-25T08:21:38.765Z,17.40
2019-02-25T08:24:30.797Z,23.97
2019-02-25T08:27:19.324Z,9.67
2019-02-25T08:30:24.358Z,9.80
2019-02-25T08:33:13.601Z,9.33
2019-02-25T08:36:31.739Z,9.37
2019-02-25T08:39:08.782Z,10.17
2019-02-25T08:41:50.594Z,9.60
2019-02-25T08:44:33.227Z,10.87
2019-02-25T08:47:05.879Z,11.40
2019-02-25T08:49:36.942Z,9.27
2019-02-25T08:52:04.534Z,10.13
2019-02-25T08:54:32.166Z,9.90
2019-02-25T08:57:00.083Z,11.23
2019-02-25T08:59:28.015Z,11.03
2019-02-25T09:01:55.682Z,12.00
2019-02-25T09:04:23.645Z,12.30
2019-02-25T09:06:51.470Z,10.97
2019-02-25T09:09:19.089Z,10.90
2019-02-25T09:11:46.726Z,11.33
2019-02-25T09:14:14.329Z,11.57
2019-02-25T09:16:42.036Z,11.10
2019-02-25T09:19:09.919Z,11.80
2019-02-25T09:21:37.547Z,11.63
2019-02-25T09:24:05.059Z,11.23
2019-02-25T09:26:32.725Z,12.30
2019-02-25T09:29:00.720Z,13.80
2019-02-25T09:31:28.360Z,14.50
2019-02-25T09:33:55.948Z,15.00
2019-02-25T09:36:25.538Z,14.87
2019-02-25T09:38:52.992Z,13.77
2019-02-25T09:41:29.484Z,12.63
2019-02-25T09:43:50.318Z,13.05
2019-02-25T09:46:17.933Z,12.13
2019-02-25T09:48:45.503Z,12.70
2019-02-25T09:51:13.409Z,13.53
2019-02-25T09:53:42.392Z,14.97
2019-02-25T09:56:10.001Z,13.15
2019-02-25T09:58:37.543Z,14.87
2019-02-25T10:01:05.343Z,15.83
2019-02-25T10:03:33.247Z,14.65
2019-02-25T10:06:04.046Z,16.40
2019-02-25T10:08:31.670Z,15.40
2019-02-25T10:10:59.305Z,13.83
2019-02-25T10:13:26.997Z,13.20
2019-02-25T10:15:54.647Z,12.05
2019-02-25T10:18:22.270Z,12.15
2019-02-25T10:20:50.011Z,10.95
2019-02-25T10:23:17.647Z,10.65
2019-02-25T10:25:45.255Z,10.60
2019-02-25T10:28:13.234Z,11.38
2019-02-25T10:30:41.058Z,10.75
2019-02-25T10:33:08.967Z,10.93
2019-02-25T10:35:36.896Z,9.88
2019-02-25T10:38:04.614Z,10.18
2019-02-25T10:40:32.309Z,9.25
2019-02-25T10:43:00.134Z,10.48
2019-02-25T10:45:28.104Z,9.58
2019-02-25T10:47:58.622Z,8.58
2019-02-25T10:50:25.497Z,9.28
2019-02-25T10:53:03.016Z,10.28
2019-02-25T10:55:33.552Z,10.38
2019-02-25T10:58:02.092Z,9.88
2019-02-25T11:00:30.597Z,8.50
2019-02-25T11:02:58.340Z,8.93
2019-02-25T11:05:28.449Z,8.03
2019-02-25T11:07:55.617Z,5.85
2019-02-25T11:10:43.967Z,5.90
2019-02-25T11:13:11.721Z,6.30
2019-02-25T11:15:40.187Z,5.85
2019-02-25T11:18:09.700Z,5.10
2019-02-25T11:20:37.797Z,5.08
2019-02-25T11:23:06.368Z,5.12
2019-02-25T11:25:34.202Z,5.40
2019-02-25T11:28:03.257Z,4.97
2019-02-25T11:30:31.471Z,5.53
2019-02-25T11:33:00.017Z,5.20
2019-02-25T11:35:28.118Z,5.35
2019-02-25T11:37:58.488Z,4.60
2019-02-25T11:40:26.030Z,4.53
2019-02-25T11:42:55.784Z,5.25
2019-02-25T11:45:23.605Z,6.92
2019-02-25T11:47:51.972Z,5.08
2019-02-25T11:50:19.625Z,4.87
2019-02-25T11:52:47.341Z,4.35
2019-02-25T11:55:15.736Z,5.15
2019-02-25T12:00:44.159Z,5.67
2019-02-25T12:03:11.921Z,6.10
2019-02-25T12:05:39.569Z,5.87
2019-02-25T12:08:07.174Z,5.60
2019-02-25T12:10:35.150Z,4.80
2019-02-25T12:13:02.974Z,4.47
2019-02-25T12:15:30.747Z,3.37
2019-02-25T12:18:11.548Z,4.22
2019-02-25T12:20:39.145Z,3.55
2019-02-25T12:23:06.931Z,7.78
2019-02-25T12:25:35.971Z,5.80
2019-02-25T12:28:03.591Z,5.50
2019-02-25T12:30:31.566Z,4.53
2019-02-25T12:32:59.214Z,5.05
2019-02-25T12:35:26.799Z,4.03
2019-02-25T12:37:54.470Z,5.80
2019-02-25T12:40:22.155Z,4.15
2019-02-25T12:42:50.141Z,3.77
2019-02-25T12:45:18.100Z,5.10
2019-02-25T12:47:45.743Z,2.90
2019-02-25T12:50:13.375Z,3.30
2019-02-25T12:52:41.371Z,3.12
2019-02-25T12:55:12.644Z,2.58
2019-02-25T12:57:41.283Z,3.67
2019-02-25T13:00:10.696Z,3.05
2019-02-25T13:02:38.261Z,3.17
2019-02-25T13:05:06.521Z,3.42
2019-02-25T13:07:34.461Z,3.37
2019-02-25T13:10:02.100Z,4.22
2019-02-25T13:12:30.307Z,3.75
2019-02-25T13:14:57.923Z,4.50
2019-02-25T13:17:25.683Z,4.33
2019-02-25T13:19:53.528Z,2.90
2019-02-25T13:22:21.184Z,3.55
2019-02-25T13:24:48.766Z,3.58
2019-02-25T13:27:17.112Z,3.45
2019-02-25T13:29:45.005Z,3.55
2019-02-25T13:32:13.063Z,3.12
2019-02-25T13:34:40.773Z,2.50
2019-02-25T13:37:08.576Z,4.10
2019-02-25T13:39:36.521Z,2.75
2019-02-25T13:42:04.560Z,2.67
2019-02-25T13:44:33.205Z,2.50
2019-02-25T13:47:00.808Z,1.30
2019-02-25T13:49:28.713Z,1.55
2019-02-25T13:51:56.301Z,2.25
2019-02-25T13:54:23.821Z,1.42
2019-02-25T13:56:51.610Z,1.80
2019-02-25T13:59:19.524Z,1.60
2019-02-25T14:01:47.063Z,1.70
2019-02-25T14:04:14.981Z,1.50
2019-02-25T14:06:42.854Z,1.77
2019-02-25T14:09:11.543Z,1.45
2019-02-25T14:11:39.064Z,2.08
2019-02-25T14:14:06.993Z,1.95
2019-02-25T14:16:34.605Z,1.47
2019-02-25T14:19:02.322Z,1.50
2019-02-25T14:21:31.620Z,1.80
2019-02-25T14:23:59.818Z,1.50
2019-02-25T14:26:28.199Z,1.45
2019-02-25T14:28:55.744Z,2.35
2019-02-25T14:31:24.824Z,1.87
2019-02-25T14:33:52.468Z,2.10
2019-02-25T14:36:20.265Z,2.70
2019-02-25T14:38:47.862Z,2.50
2019-02-25T14:41:16.189Z,2.37
2019-02-25T14:43:47.072Z,2.45
2019-02-25T14:46:16.563Z,4.33
2019-02-25T14:48:43.941Z,2.55
2019-02-25T14:51:11.498Z,2.67
2019-02-25T14:53:39.369Z,2.25
2019-02-25T14:56:07.206Z,3.75
2019-02-25T14:58:36.193Z,3.37
2019-02-25T15:01:04.508Z,4.08
2019-02-25T15:03:32.158Z,2.92
2019-02-25T15:05:59.907Z,2.95
2019-02-25T15:08:28.515Z,2.70
2019-02-25T15:11:02.009Z,10.28
2019-02-25T15:13:28.226Z,9.65
2019-02-25T15:15:58.457Z,10.00
2019-02-25T15:18:27.037Z,9.98
2019-02-25T15:20:56.449Z,10.70
2019-02-25T15:23:32.317Z,11.73
2019-02-25T15:26:05.143Z,10.78
2019-02-25T15:28:29.281Z,10.95
2019-02-25T15:30:58.264Z,10.50
2019-02-25T15:33:26.164Z,10.88
2019-02-25T15:35:54.869Z,11.10
2019-02-25T15:38:22.427Z,10.35
2019-02-25T15:40:50.318Z,10.88
2019-02-25T15:43:20.803Z,10.53
2019-02-25T15:45:48.282Z,9.60
2019-02-25T15:48:16.889Z,9.80
2019-02-25T15:50:48.033Z,10.28
2019-02-25T15:53:15.983Z,10.60
2019-02-25T15:55:44.392Z,10.05
2019-02-25T15:58:12.318Z,9.63
2019-02-25T16:00:40.502Z,10.58
2019-02-25T16:03:11.042Z,9.25
2019-02-25T16:05:38.929Z,9.10
2019-02-25T16:08:08.418Z,9.58
2019-02-25T16:10:35.990Z,9.73
2019-02-25T16:13:09.075Z,10.95
2019-02-25T16:15:34.688Z,9.38
2019-02-25T16:18:02.697Z,9.80
2019-02-25T16:20:32.608Z,10.63
2019-02-25T16:23:02.798Z,9.75
2019-02-25T16:25:32.188Z,9.05
2019-02-25T16:28:00.267Z,9.05
2019-02-25T16:30:30.516Z,7.50
2019-02-25T16:32:57.248Z,7.15
2019-02-25T16:35:25.270Z,7.10
2019-02-25T16:37:55.172Z,6.53
2019-02-25T16:40:24.402Z,5.83
2019-02-25T16:42:55.015Z,4.42
2019-02-25T16:45:21.719Z,4.80
2019-02-25T16:47:50.493Z,5.20
2019-02-25T16:50:19.295Z,5.62
2019-02-25T16:52:49.197Z,5.17
2019-02-25T16:55:18.222Z,5.53
2019-02-25T16:57:47.772Z,5.22
2019-02-25T17:00:15.990Z,5.80
2019-02-25T17:02:44.868Z,5.45
2019-02-25T17:05:12.959Z,6.20
2019-02-25T17:07:42.155Z,6.45
2019-02-25T17:10:11.530Z,7.42
2019-02-25T17:12:39.108Z,8.45
2019-02-25T17:15:09.850Z,9.50
2019-02-25T17:17:37.878Z,10.78
2019-02-25T17:20:06.216Z,9.93
2019-02-25T17:22:33.807Z,10.85
2019-02-25T17:25:03.846Z,11.40
2019-02-25T17:27:31.165Z,12.47
2019-02-25T17:29:59.809Z,11.63
2019-02-25T17:32:27.537Z,12.20
2019-02-25T17:34:56.541Z,13.60
2019-02-25T17:37:26.658Z,12.88
2019-02-25T17:39:56.612Z,12.83
2019-02-25T17:42:24.248Z,13.43
2019-02-25T17:44:53.606Z,13.67
2019-02-25T17:47:24.312Z,13.60
2019-02-25T17:49:51.231Z,13.22
2019-02-25T17:52:20.601Z,13.83
2019-02-25T17:54:48.294Z,14.07
2019-02-25T17:57:16.729Z,14.83
2019-02-25T17:59:46.469Z,14.33
2019-02-25T18:02:14.692Z,15.43
2019-02-25T18:04:42.291Z,15.07
2019-02-25T18:07:09.838Z,15.00
2019-02-25T18:09:38.038Z,15.53
2019-02-25T18:12:08.137Z,16.93
2019-02-25T18:14:37.403Z,16.13
2019-02-25T18:17:08.239Z,16.57
2019-02-25T18:19:41.810Z,17.20
2019-02-25T18:22:08.848Z,16.23
2019-02-25T18:24:36.825Z,16.33
2019-02-25T18:27:06.943Z,17.37
2019-02-25T18:29:35.014Z,17.77
2019-02-25T18:32:05.800Z,18.83
2019-02-25T18:34:34.439Z,18.93
2019-02-25T18:37:02.627Z,18.33
2019-02-25T18:39:31.631Z,18.87
2019-02-25T18:42:00.121Z,18.93
2019-02-25T18:44:28.066Z,18.30
2019-02-25T18:46:55.663Z,19.17
2019-02-25T18:49:23.269Z,18.03
2019-02-25T18:51:51.057Z,19.17
2019-02-25T18:54:20.834Z,19.47
2019-02-25T18:56:48.745Z,19.77
2019-02-25T18:59:18.038Z,20.40
2019-02-25T19:01:47.657Z,21.20
2019-02-25T19:04:17.426Z,21.33
2019-02-25T19:06:47.358Z,21.37
2019-02-25T19:09:20.622Z,22.50
2019-02-25T19:11:49.112Z,25.67
2019-02-25T19:14:20.171Z,25.60
2019-02-25T19:16:47.460Z,22.70
2019-02-25T19:19:17.109Z,22.43
2019-02-25T19:21:46.142Z,22.07
2019-02-25T19:24:16.508Z,20.90
2019-02-25T19:26:45.047Z,20.27
2019-02-25T19:29:15.269Z,19.33
2019-02-25T19:31:43.816Z,21.60
2019-02-25T19:34:15.459Z,21.57
2019-02-25T19:36:41.537Z,19.90
2019-02-25T19:39:11.948Z,19.43
2019-02-25T19:41:40.189Z,20.23
2019-02-25T19:44:08.928Z,20.47
2019-02-25T19:46:37.903Z,20.33
2019-02-25T19:49:05.463Z,20.63
2019-02-25T19:51:33.253Z,21.60
2019-02-25T19:54:02.623Z,22.13
2019-02-25T19:56:30.510Z,22.93
2019-02-25T19:58:58.366Z,23.77
2019-02-25T20:01:27.483Z,22.37
2019-02-25T20:03:55.051Z,21.57
2019-02-25T20:06:23.529Z,21.67
2019-02-25T20:08:53.473Z,20.57
2019-02-25T20:11:21.648Z,22.03
2019-02-25T20:13:49.287Z,20.53
2019-02-25T20:16:20.092Z,21.40
2019-02-25T20:18:46.513Z,22.70
2019-02-25T20:21:14.097Z,22.60
2019-02-25T20:23:41.673Z,23.20
2019-02-25T20:26:11.281Z,23.10
2019-02-25T20:28:39.596Z,23.90
2019-02-25T20:31:09.994Z,24.43
2019-02-25T20:33:39.175Z,25.03
2019-02-25T20:36:07.148Z,28.50
2019-02-25T20:38:35.292Z,32.47
2019-02-25T20:41:04.777Z,38.50
2019-02-25T20:43:32.857Z,40.90
2019-02-25T20:46:01.506Z,39.90
2019-02-25T20:48:30.445Z,36.93
2019-02-25T20:50:59.821Z,36.67
2019-02-25T20:53:29.542Z,37.63
2019-02-25T20:55:58.868Z,41.07
2019-02-25T20:58:26.894Z,41.80
2019-02-25T21:00:54.486Z,47.30
2019-02-25T21:03:23.178Z,48.00
2019-02-25T21:05:51.485Z,46.40
2019-02-25T21:08:20.819Z,45.93
2019-02-25T21:10:48.454Z,43.90
2019-02-25T21:13:16.262Z,42.37
2019-02-25T21:15:45.400Z,40.93
2019-02-25T21:18:13.249Z,39.20
2019-02-25T21:20:42.829Z,40.03
2019-02-25T21:23:12.446Z,38.40
2019-02-25T21:25:39.822Z,31.43
2019-02-25T21:28:09.572Z,27.70
2019-02-25T21:30:41.161Z,26.27
2019-02-25T21:33:07.930Z,23.27
2019-02-25T21:35:37.349Z,20.70
2019-02-25T21:38:04.962Z,20.70
2019-02-25T21:40:32.575Z,21.13
2019-02-25T21:43:00.550Z,20.27
2019-02-25T21:45:30.211Z,22.43
2019-02-25T21:48:01.179Z,20.37
2019-02-25T21:50:30.668Z,21.47
2019-02-25T21:52:57.074Z,20.00
2019-02-25T21:55:26.189Z,19.17
2019-02-25T21:57:57.384Z,19.27
2019-02-25T22:00:28.881Z,16.50
2019-02-25T22:02:57.238Z,16.27
2019-02-25T22:05:25.110Z,17.57
2019-02-25T22:07:55.375Z,17.60
2019-02-25T22:10:23.198Z,17.23
2019-02-25T22:12:50.830Z,17.23
2019-02-25T22:15:19.704Z,18.70
2019-02-25T22:17:50.238Z,19.77
2019-02-25T22:20:18.939Z,20.40
2019-02-25T22:22:47.069Z,20.90
2019-02-25T22:25:15.767Z,23.10
2019-02-25T22:27:45.621Z,26.53
2019-02-25T22:30:16.019Z,24.90
2019-02-25T22:32:44.237Z,27.27
2019-02-25T22:35:12.842Z,27.73
2019-02-25T22:37:44.297Z,25.33
2019-02-25T22:40:12.421Z,23.20
2019-02-25T22:42:40.738Z,21.90
2019-02-25T22:45:09.935Z,20.60
2019-02-25T22:47:38.776Z,18.57
2019-02-25T22:50:08.543Z,15.77
2019-02-25T22:52:37.347Z,16.37
2019-02-25T22:55:07.913Z,14.47
2019-02-25T22:57:34.643Z,14.83
2019-02-25T23:00:07.763Z,13.63
2019-02-25T23:02:35.904Z,14.50
2019-02-25T23:05:29.951Z,15.47
2019-02-25T23:07:57.510Z,13.97
2019-02-25T23:10:25.571Z,13.13
2019-02-25T23:12:53.157Z,13.07
2019-02-25T23:15:24.594Z,14.37
2019-02-25T23:17:50.678Z,13.13
2019-02-25T23:20:18.180Z,13.10
2019-02-25T23:22:45.741Z,13.37
2019-02-25T23:25:13.331Z,13.57
2019-02-25T23:27:41.226Z,13.47
2019-02-25T23:30:09.096Z,13.87
2019-02-25T23:32:39.366Z,15.37
2019-02-25T23:35:09.483Z,15.07
2019-02-25T23:37:36.843Z,15.20
2019-02-25T23:40:05.148Z,14.10
2019-02-25T23:42:37.101Z,16.77
2019-02-25T23:45:03.498Z,16.90
2019-02-25T23:47:31.620Z,19.07
2019-02-25T23:50:01.186Z,19.90
2019-02-25T23:52:30.990Z,22.77
2019-02-25T23:54:59.604Z,22.50
2019-02-25T23:57:28.752Z,22.93
2019-02-25T23:59:57.180Z,20.70
